createdAt,value
2019-02-21T00:02:08.632Z,20.03
2019-02-21T00:04:34.810Z,17.90
2019-02-21T00:07:01.110Z,18.90
2019-02-21T00:09:27.268Z,18.73
2019-02-21T00:11:53.428Z,19.93
2019-02-21T00:14:19.627Z,21.30
2019-02-21T00:16:45.894Z,20.73
2019-02-21T00:19:12.059Z,18.27
2019-02-21T00:21:38.350Z,23.97
2019-02-21T00:24:04.514Z,21.53
2019-02-21T00:26:30.684Z,21.60
2019-02-21T00:28:56.870Z,25.73
2019-02-21T00:31:23.039Z,19.73
2019-02-21T00:33:49.209Z,19.17
2019-02-21T00:36:15.421Z,19.60
2019-02-21T00:38:41.584Z,19.47
2019-02-21T00:41:07.845Z,21.10
2019-02-21T00:43:34.035Z,22.73
2019-02-21T00:46:00.417Z,17.53
2019-02-21T00:48:26.586Z,20.70
2019-02-21T00:50:52.772Z,24.20
2019-02-21T00:53:18.943Z,25.27
2019-02-21T00:55:45.097Z,22.53
2019-02-21T00:58:11.386Z,21.77
2019-02-21T01:00:46.082Z,31.53
2019-02-21T01:03:05.729Z,21.67
2019-02-21T01:05:31.937Z,26.00
2019-02-21T01:07:58.112Z,23.23
2019-02-21T01:10:24.270Z,24.50
2019-02-21T01:12:50.574Z,20.10
2019-02-21T01:15:16.833Z,23.67
2019-02-21T01:17:43.002Z,22.13
2019-02-21T01:20:09.491Z,27.97
2019-02-21T01:22:35.650Z,28.83
2019-02-21T01:25:01.815Z,20.60
2019-02-21T01:27:27.997Z,27.37
2019-02-21T01:29:54.175Z,23.90
2019-02-21T01:32:20.333Z,22.27
2019-02-21T01:34:46.523Z,20.43
2019-02-21T01:37:12.791Z,21.53
2019-02-21T01:39:38.949Z,23.17
2019-02-21T01:42:05.239Z,21.90
2019-02-21T01:44:31.505Z,22.57
2019-02-21T01:46:57.681Z,23.43
2019-02-21T01:49:23.862Z,21.77
2019-02-21T01:51:50.128Z,26.10
2019-02-21T01:54:16.393Z,22.47
2019-02-21T01:56:42.888Z,18.50
2019-02-21T01:59:09.045Z,25.63
2019-02-21T02:01:35.647Z,26.53
2019-02-21T02:04:01.850Z,27.40
2019-02-21T02:06:28.115Z,23.70
2019-02-21T02:08:54.286Z,20.73
2019-02-21T02:11:20.521Z,23.23
2019-02-21T02:13:46.656Z,17.53
2019-02-21T02:16:12.808Z,20.50
2019-02-21T02:18:38.999Z,25.50
2019-02-21T02:21:06.062Z,22.00
2019-02-21T02:23:32.333Z,24.23
2019-02-21T02:25:58.518Z,31.60
2019-02-21T02:28:24.673Z,22.27
2019-02-21T02:30:50.847Z,25.00
2019-02-21T02:33:17.039Z,31.77
2019-02-21T02:35:43.301Z,22.83
2019-02-21T02:38:09.561Z,24.83
2019-02-21T02:40:35.750Z,27.20
2019-02-21T02:43:01.912Z,23.93
2019-02-21T02:45:28.177Z,29.00
2019-02-21T02:47:54.364Z,24.07
2019-02-21T02:50:20.630Z,24.13
2019-02-21T02:52:46.816Z,24.43
2019-02-21T02:55:13.023Z,23.33
2019-02-21T02:57:39.296Z,24.17
2019-02-21T03:00:11.849Z,26.13
2019-02-21T03:02:38.064Z,26.90
2019-02-21T03:05:05.126Z,25.70
2019-02-21T03:07:31.256Z,20.13
2019-02-21T03:09:57.440Z,29.10
2019-02-21T03:12:23.712Z,25.57
2019-02-21T03:14:49.860Z,26.07
2019-02-21T03:17:16.059Z,24.93
2019-02-21T03:19:42.226Z,29.80
2019-02-21T03:22:08.381Z,26.27
2019-02-21T03:24:34.860Z,23.40
2019-02-21T03:27:01.013Z,21.80
2019-02-21T03:29:27.168Z,24.03
2019-02-21T03:31:55.917Z,24.43
2019-02-21T03:34:21.425Z,25.90
2019-02-21T03:36:47.594Z,27.77
2019-02-21T03:39:13.870Z,20.77
2019-02-21T03:41:40.034Z,24.13
2019-02-21T03:44:06.191Z,23.77
2019-02-21T03:46:32.379Z,28.53
2019-02-21T03:48:58.535Z,31.50
2019-02-21T03:51:24.686Z,29.87
2019-02-21T03:53:50.996Z,23.77
2019-02-21T03:56:17.155Z,27.30
2019-02-21T03:58:43.802Z,31.67
2019-02-21T04:01:10.130Z,28.83
2019-02-21T04:03:36.248Z,28.33
2019-02-21T04:06:02.415Z,34.30
2019-02-21T04:08:28.711Z,30.27
2019-02-21T04:10:54.975Z,30.87
2019-02-21T04:13:21.131Z,37.83
2019-02-21T04:15:47.429Z,26.83
2019-02-21T04:18:13.690Z,28.27
2019-02-21T04:20:39.860Z,28.37
2019-02-21T04:23:06.155Z,25.70
2019-02-21T04:25:32.309Z,27.13
2019-02-21T04:27:58.463Z,33.23
2019-02-21T04:30:24.653Z,23.63
2019-02-21T04:32:50.815Z,28.53
2019-02-21T04:35:17.077Z,28.33
2019-02-21T04:37:43.403Z,27.43
2019-02-21T04:40:09.569Z,30.00
2019-02-21T04:42:35.733Z,28.87
2019-02-21T04:45:01.940Z,36.80
2019-02-21T04:47:32.257Z,30.11
2019-02-21T04:49:58.429Z,32.77
2019-02-21T04:52:24.626Z,33.57
2019-02-21T04:54:50.794Z,34.37
2019-02-21T04:57:17.221Z,37.43
2019-02-21T04:59:43.414Z,35.23
2019-02-21T05:02:09.704Z,39.73
2019-02-21T05:04:35.869Z,37.13
2019-02-21T05:07:02.231Z,39.97
2019-02-21T05:09:32.339Z,40.80
2019-02-21T05:11:58.608Z,41.10
2019-02-21T05:14:24.798Z,41.50
2019-02-21T05:16:50.963Z,41.50
2019-02-21T05:19:17.232Z,43.60
2019-02-21T05:21:43.438Z,19.33
2019-02-21T05:24:09.613Z,32.57
2019-02-21T05:26:37.676Z,32.93
2019-02-21T05:29:05.774Z,34.63
2019-02-21T05:31:51.726Z,34.37
2019-02-21T05:34:28.605Z,28.90
2019-02-21T05:37:02.684Z,36.77
2019-02-21T05:39:30.784Z,27.60
2019-02-21T05:42:16.684Z,37.43
2019-02-21T05:44:59.681Z,37.77
2019-02-21T05:47:27.786Z,36.80
2019-02-21T05:50:10.689Z,29.17
2019-02-21T05:52:41.301Z,32.33
2019-02-21T05:55:18.451Z,30.30
2019-02-21T05:58:03.061Z,29.97
2019-02-21T06:00:39.726Z,31.23
2019-02-21T06:03:07.846Z,36.07
2019-02-21T06:05:41.957Z,30.23
2019-02-21T06:08:10.057Z,35.50
2019-02-21T06:10:40.645Z,31.77
2019-02-21T06:13:08.748Z,34.83
2019-02-21T06:15:36.719Z,32.47
2019-02-21T06:18:17.838Z,36.40
2019-02-21T06:21:04.228Z,29.53
2019-02-21T06:23:41.134Z,27.77
2019-02-21T06:26:09.287Z,31.30
2019-02-21T06:28:37.402Z,32.13
2019-02-21T06:31:05.500Z,27.07
2019-02-21T06:33:31.652Z,28.60
2019-02-21T06:35:57.826Z,21.17
2019-02-21T06:38:24.038Z,34.60
2019-02-21T06:40:50.187Z,32.47
2019-02-21T06:43:16.506Z,30.90
2019-02-21T06:45:42.787Z,34.03
2019-02-21T06:48:09.061Z,33.37
2019-02-21T06:50:35.328Z,32.23
2019-02-21T06:53:01.524Z,18.97
2019-02-21T06:55:27.730Z,30.73
2019-02-21T06:57:54.310Z,22.73
2019-02-21T07:00:20.510Z,25.93
2019-02-21T07:02:46.777Z,26.47
2019-02-21T07:05:12.945Z,25.90
2019-02-21T07:07:39.136Z,26.10
2019-02-21T07:10:06.619Z,28.60
2019-02-21T07:12:32.796Z,26.90
2019-02-21T07:14:59.002Z,26.07
2019-02-21T07:17:27.418Z,27.37
2019-02-21T07:19:53.359Z,25.50
2019-02-21T07:22:22.379Z,22.47
2019-02-21T07:24:49.734Z,20.10
2019-02-21T07:27:15.895Z,22.03
2019-02-21T07:29:42.549Z,33.77
2019-02-21T07:32:08.768Z,23.43
2019-02-21T07:34:34.930Z,21.80
2019-02-21T07:37:01.229Z,27.87
2019-02-21T07:39:35.674Z,24.53
2019-02-21T07:41:55.844Z,22.17
2019-02-21T07:44:22.262Z,26.00
2019-02-21T07:46:48.520Z,22.53
2019-02-21T07:49:14.679Z,24.10
2019-02-21T07:51:42.798Z,23.07
2019-02-21T07:54:08.977Z,23.70
2019-02-21T07:56:42.004Z,23.20
2019-02-21T07:59:03.774Z,25.47
2019-02-21T08:01:29.914Z,23.73
2019-02-21T08:03:56.079Z,26.50
2019-02-21T08:06:22.391Z,26.37
2019-02-21T08:08:48.567Z,28.03
2019-02-21T08:11:14.836Z,25.47
2019-02-21T08:13:41.136Z,27.33
2019-02-21T08:16:07.330Z,25.53
2019-02-21T08:18:33.494Z,22.50
2019-02-21T08:20:59.802Z,22.87
2019-02-21T08:23:26.071Z,24.73
2019-02-21T08:25:52.242Z,27.90
2019-02-21T08:28:19.260Z,27.47
2019-02-21T08:30:45.445Z,25.43
2019-02-21T08:33:13.535Z,26.70
2019-02-21T08:35:39.747Z,22.97
2019-02-21T08:38:06.035Z,20.43
2019-02-21T08:40:32.326Z,22.90
2019-02-21T08:42:58.639Z,24.17
2019-02-21T08:45:24.804Z,20.93
2019-02-21T08:47:50.975Z,24.07
2019-02-21T08:50:17.182Z,32.40
2019-02-21T08:52:43.457Z,24.63
2019-02-21T08:55:09.635Z,24.00
2019-02-21T08:57:35.930Z,25.47
2019-02-21T09:00:03.493Z,22.43
2019-02-21T09:02:29.665Z,30.27
2019-02-21T09:04:55.868Z,27.90
2019-02-21T09:07:22.032Z,23.83
2019-02-21T09:09:48.199Z,24.73
2019-02-21T09:12:14.556Z,20.37
2019-02-21T09:14:40.723Z,26.30
2019-02-21T09:17:06.883Z,22.33
2019-02-21T09:19:33.199Z,27.03
2019-02-21T09:21:59.357Z,21.87
2019-02-21T09:24:38.117Z,24.37
2019-02-21T09:26:53.738Z,27.13
2019-02-21T09:29:20.014Z,25.90
2019-02-21T09:31:46.281Z,29.53
2019-02-21T09:34:20.892Z,25.97
2019-02-21T09:36:40.553Z,22.33
2019-02-21T09:39:06.834Z,26.30
2019-02-21T09:41:33.147Z,31.50
2019-02-21T09:43:59.318Z,24.27
2019-02-21T09:46:25.498Z,33.03
2019-02-21T09:48:51.701Z,22.97
2019-02-21T09:51:18.405Z,29.10
2019-02-21T09:53:44.837Z,30.53
2019-02-21T09:56:11.055Z,27.70
2019-02-21T09:58:37.324Z,25.23
2019-02-21T10:01:03.492Z,31.87
2019-02-21T10:03:29.812Z,29.37
2019-02-21T10:05:56.082Z,24.97
2019-02-21T10:08:22.366Z,28.73
2019-02-21T10:10:48.665Z,24.33
2019-02-21T10:13:14.879Z,24.80
2019-02-21T10:15:41.053Z,20.27
2019-02-21T10:18:07.268Z,22.40
2019-02-21T10:20:33.441Z,24.33
2019-02-21T10:23:01.279Z,30.07
2019-02-21T10:25:29.393Z,39.93
2019-02-21T10:27:55.551Z,30.33
2019-02-21T10:30:22.349Z,43.23
2019-02-21T10:32:48.559Z,37.03
2019-02-21T10:35:14.734Z,28.00
2019-02-21T10:37:41.033Z,32.33
2019-02-21T10:40:09.640Z,32.77
2019-02-21T10:42:35.842Z,25.80
2019-02-21T10:45:03.523Z,28.17
2019-02-21T10:47:30.044Z,22.70
2019-02-21T10:49:58.042Z,27.67
2019-02-21T10:52:27.229Z,21.80
2019-02-21T10:54:53.557Z,32.80
2019-02-21T10:57:19.851Z,31.03
2019-02-21T10:59:47.131Z,25.27
2019-02-21T11:02:13.541Z,26.10
2019-02-21T11:04:42.082Z,25.17
2019-02-21T11:07:07.779Z,32.23
2019-02-21T11:09:33.985Z,32.10
2019-02-21T11:12:00.154Z,25.13
2019-02-21T11:14:26.359Z,26.63
2019-02-21T11:16:52.665Z,31.97
2019-02-21T11:19:18.834Z,27.17
2019-02-21T11:21:45.003Z,29.00
2019-02-21T11:24:11.202Z,32.77
2019-02-21T11:26:37.380Z,31.80
2019-02-21T11:29:03.548Z,28.40
2019-02-21T11:31:29.933Z,44.43
2019-02-21T11:33:56.245Z,34.33
2019-02-21T11:36:22.394Z,30.33
2019-02-21T11:38:48.703Z,38.93
2019-02-21T11:41:14.866Z,45.03
2019-02-21T11:43:41.043Z,31.63
2019-02-21T11:46:07.233Z,30.07
2019-02-21T11:48:33.408Z,31.90
2019-02-21T11:50:59.568Z,35.60
2019-02-21T11:53:25.855Z,34.53
2019-02-21T11:55:52.010Z,30.00
2019-02-21T11:58:18.165Z,33.40
2019-02-21T12:00:44.468Z,41.90
2019-02-21T12:03:10.630Z,30.30
2019-02-21T12:05:36.930Z,32.33
2019-02-21T12:08:03.116Z,33.70
2019-02-21T12:10:29.287Z,30.33
2019-02-21T12:12:55.443Z,31.33
2019-02-21T12:15:21.848Z,28.30
2019-02-21T12:17:48.113Z,22.70
2019-02-21T12:20:18.429Z,31.60
2019-02-21T12:22:44.616Z,28.87
2019-02-21T12:25:21.514Z,26.83
2019-02-21T12:27:49.606Z,30.70
2019-02-21T12:30:17.176Z,27.00
2019-02-21T12:32:43.328Z,27.93
2019-02-21T12:35:09.626Z,30.03
2019-02-21T12:37:35.787Z,31.03
2019-02-21T12:40:02.143Z,35.73
2019-02-21T12:42:28.341Z,31.97
2019-02-21T12:44:54.497Z,28.67
2019-02-21T12:47:20.651Z,29.27
2019-02-21T12:49:46.939Z,34.43
2019-02-21T12:52:13.099Z,33.47
2019-02-21T12:54:39.248Z,29.93
2019-02-21T12:57:05.457Z,25.90
2019-02-21T12:59:31.605Z,29.50
2019-02-21T13:01:57.926Z,27.97
2019-02-21T13:04:24.155Z,23.30
2019-02-21T13:06:50.313Z,28.60
2019-02-21T13:09:16.467Z,30.07
2019-02-21T13:11:42.664Z,31.03
2019-02-21T13:14:08.837Z,25.20
2019-02-21T13:16:35.133Z,24.27
2019-02-21T13:19:01.326Z,24.73
2019-02-21T13:21:27.477Z,24.50
2019-02-21T13:23:53.659Z,24.20
2019-02-21T13:26:20.041Z,23.70
2019-02-21T13:28:46.328Z,25.90
2019-02-21T13:31:12.477Z,27.90
2019-02-21T13:33:39.062Z,29.17
2019-02-21T13:36:10.896Z,33.00
2019-02-21T13:38:37.171Z,23.40
2019-02-21T13:41:03.371Z,27.03
2019-02-21T13:43:29.633Z,24.70
2019-02-21T13:45:55.795Z,30.83
2019-02-21T13:48:21.993Z,27.43
2019-02-21T13:50:48.157Z,27.00
2019-02-21T13:53:14.308Z,24.70
2019-02-21T13:55:40.508Z,30.53
2019-02-21T13:58:06.767Z,23.60
2019-02-21T14:00:33.323Z,21.43
2019-02-21T14:02:59.509Z,25.63
2019-02-21T14:05:25.660Z,24.10
2019-02-21T14:07:51.930Z,30.07
2019-02-21T14:10:18.127Z,29.97
2019-02-21T14:12:44.294Z,25.33
2019-02-21T14:15:15.384Z,33.20
2019-02-21T14:17:41.583Z,31.40
2019-02-21T14:20:08.044Z,29.03
2019-02-21T14:22:34.201Z,24.57
2019-02-21T14:25:00.490Z,22.17
2019-02-21T14:27:26.657Z,26.33
2019-02-21T14:29:52.810Z,25.93
2019-02-21T14:32:19.105Z,30.63
2019-02-21T14:34:45.270Z,29.50
2019-02-21T14:37:11.426Z,30.47
2019-02-21T14:39:37.607Z,32.60
2019-02-21T14:42:04.531Z,27.67
2019-02-21T14:44:30.968Z,31.10
2019-02-21T14:46:57.164Z,30.60
2019-02-21T14:49:25.656Z,30.23
2019-02-21T14:51:51.381Z,27.00
2019-02-21T14:54:17.697Z,23.90
2019-02-21T14:56:43.849Z,30.90
2019-02-21T14:59:10.116Z,27.37
2019-02-21T15:01:36.675Z,24.47
2019-02-21T15:04:02.840Z,26.47
2019-02-21T15:06:29.058Z,27.70
2019-02-21T15:08:55.222Z,32.10
2019-02-21T15:11:21.482Z,23.33
2019-02-21T15:13:47.735Z,26.43
2019-02-21T15:16:13.926Z,30.93
2019-02-21T15:18:40.145Z,30.97
2019-02-21T15:21:06.310Z,34.73
2019-02-21T15:23:32.595Z,31.10
2019-02-21T15:25:58.756Z,27.63
2019-02-21T15:28:24.910Z,38.47
2019-02-21T15:30:51.096Z,46.97
2019-02-21T15:33:17.254Z,91.70
2019-02-21T15:35:43.412Z,69.60
2019-02-21T15:38:19.561Z,52.70
2019-02-21T15:40:37.689Z,85.70
2019-02-21T15:43:05.389Z,61.73
2019-02-21T15:45:31.769Z,75.53
2019-02-21T15:47:57.950Z,75.67
2019-02-21T15:50:24.124Z,112.60
2019-02-21T15:52:52.223Z,64.17
2019-02-21T15:55:19.590Z,43.33
2019-02-21T15:57:45.879Z,45.87
2019-02-21T16:00:14.777Z,41.90
2019-02-21T16:02:40.933Z,51.67
2019-02-21T16:05:08.009Z,77.77
2019-02-21T16:07:34.215Z,55.30
2019-02-21T16:10:00.486Z,63.50
2019-02-21T16:12:26.809Z,48.43
2019-02-21T16:14:53.168Z,57.87
2019-02-21T16:17:19.446Z,80.47
2019-02-21T16:19:46.650Z,67.70
2019-02-21T16:22:12.965Z,93.17
2019-02-21T16:24:39.528Z,116.43
2019-02-21T16:27:05.800Z,60.60
2019-02-21T16:29:32.005Z,72.30
2019-02-21T16:31:58.171Z,109.97
2019-02-21T16:34:24.354Z,88.20
2019-02-21T16:36:50.542Z,91.50
2019-02-21T16:39:16.815Z,82.53
2019-02-21T16:41:44.380Z,141.77
2019-02-21T16:44:10.979Z,142.27
2019-02-21T16:46:37.150Z,186.67
2019-02-21T16:49:03.439Z,192.67
2019-02-21T16:51:29.755Z,176.10
2019-02-21T16:53:55.924Z,176.27
2019-02-21T16:56:22.119Z,175.27
2019-02-21T16:58:48.304Z,137.37
2019-02-21T17:01:14.880Z,127.27
2019-02-21T17:03:41.032Z,91.03
2019-02-21T17:06:07.326Z,93.33
2019-02-21T17:08:33.494Z,105.67
2019-02-21T17:10:59.659Z,78.47
2019-02-21T17:13:25.955Z,74.83
2019-02-21T17:15:52.123Z,48.60
2019-02-21T17:18:18.393Z,60.07
2019-02-21T17:20:45.685Z,35.23
2019-02-21T17:23:22.290Z,27.00
2019-02-21T17:25:40.037Z,27.33
2019-02-21T17:28:06.255Z,28.80
2019-02-21T17:30:32.422Z,26.60
2019-02-21T17:32:58.589Z,38.17
2019-02-21T17:35:24.907Z,62.87
2019-02-21T17:37:51.102Z,32.57
2019-02-21T17:40:23.847Z,54.83
2019-02-21T17:42:50.040Z,20.73
2019-02-21T17:45:16.342Z,30.97
2019-02-21T17:47:42.515Z,26.67
2019-02-21T17:50:11.104Z,26.60
2019-02-21T17:52:37.316Z,17.47
2019-02-21T17:55:06.069Z,16.97
2019-02-21T17:57:32.276Z,24.37
2019-02-21T17:59:58.441Z,29.73
2019-02-21T18:02:24.723Z,32.80
2019-02-21T18:04:51.049Z,39.53
2019-02-21T18:07:17.221Z,40.87
2019-02-21T18:09:43.391Z,39.60
2019-02-21T18:12:09.579Z,78.03
2019-02-21T18:14:35.849Z,35.80
2019-02-21T18:17:03.030Z,94.23
2019-02-21T18:19:29.239Z,33.23
2019-02-21T18:21:56.477Z,48.80
2019-02-21T18:24:22.648Z,122.30
2019-02-21T18:26:48.847Z,41.80
2019-02-21T18:29:15.157Z,27.17
2019-02-21T18:31:41.427Z,140.67
2019-02-21T18:34:07.628Z,495.50
2019-02-21T18:36:33.794Z,37.17
2019-02-21T18:39:00.078Z,18.97
2019-02-21T18:41:26.378Z,36.17
2019-02-21T18:43:52.647Z,29.33
2019-02-21T18:46:18.813Z,34.57
2019-02-21T18:48:45.010Z,38.30
2019-02-21T18:51:11.176Z,36.40
2019-02-21T18:53:37.356Z,38.13
2019-02-21T18:56:04.119Z,35.60
2019-02-21T18:58:30.375Z,35.00
2019-02-21T19:00:56.604Z,45.37
2019-02-21T19:03:22.982Z,24.30
2019-02-21T19:05:49.262Z,30.50
2019-02-21T19:08:15.449Z,30.37
2019-02-21T19:10:41.749Z,19.77
2019-02-21T19:13:08.383Z,31.77
2019-02-21T19:15:35.147Z,17.60
2019-02-21T19:18:01.482Z,14.93
2019-02-21T19:20:27.743Z,18.30
2019-02-21T19:22:54.053Z,15.97
2019-02-21T19:25:20.340Z,20.20
2019-02-21T19:27:46.604Z,21.80
2019-02-21T19:30:28.498Z,19.97
2019-02-21T19:32:54.789Z,16.97
2019-02-21T19:35:22.779Z,14.07
2019-02-21T19:37:48.970Z,14.90
2019-02-21T19:40:15.137Z,14.77
2019-02-21T19:42:41.300Z,17.33
2019-02-21T19:45:08.401Z,19.23
2019-02-21T19:47:34.966Z,17.20
2019-02-21T19:50:01.237Z,32.57
2019-02-21T19:52:27.471Z,19.50
2019-02-21T19:54:53.740Z,17.53
2019-02-21T19:57:19.915Z,15.30
2019-02-21T19:59:46.117Z,14.57
2019-02-21T20:02:12.585Z,15.47
2019-02-21T20:04:38.855Z,16.67
2019-02-21T20:07:05.043Z,20.70
2019-02-21T20:09:31.212Z,20.70
2019-02-21T20:11:57.379Z,15.13
2019-02-21T20:14:23.679Z,28.70
2019-02-21T20:16:49.949Z,17.10
2019-02-21T20:19:16.121Z,21.40
2019-02-21T20:21:42.322Z,17.67
2019-02-21T20:24:09.562Z,22.00
2019-02-21T20:26:35.733Z,21.50
2019-02-21T20:29:02.043Z,14.97
2019-02-21T20:31:28.304Z,24.87
2019-02-21T20:33:54.489Z,23.57
2019-02-21T20:36:20.912Z,22.33
2019-02-21T20:38:47.495Z,19.73
2019-02-21T20:41:13.781Z,28.80
2019-02-21T20:43:40.007Z,29.27
2019-02-21T20:46:06.236Z,16.50
2019-02-21T20:48:35.263Z,17.40
2019-02-21T20:51:01.881Z,13.37
2019-02-21T20:53:28.232Z,14.63
2019-02-21T20:55:54.507Z,12.70
2019-02-21T20:58:20.792Z,16.27
2019-02-21T21:00:46.952Z,18.17
2019-02-21T21:03:13.238Z,17.53
2019-02-21T21:05:39.583Z,11.03
2019-02-21T21:08:05.749Z,21.27
2019-02-21T21:10:31.923Z,15.47
2019-02-21T21:12:58.256Z,16.00
2019-02-21T21:15:24.429Z,17.87
2019-02-21T21:17:50.685Z,11.63
2019-02-21T21:20:17.553Z,13.77
2019-02-21T21:22:44.041Z,15.93
2019-02-21T21:25:12.979Z,18.33
2019-02-21T21:27:39.153Z,17.85
2019-02-21T21:30:08.422Z,14.53
2019-02-21T21:32:34.692Z,17.70
2019-02-21T21:35:01.016Z,15.13
2019-02-21T21:37:27.221Z,16.83
2019-02-21T21:39:53.449Z,14.60
2019-02-21T21:42:19.649Z,45.70
2019-02-21T21:44:45.821Z,15.30
2019-02-21T21:47:11.984Z,10.53
2019-02-21T21:49:38.199Z,10.37
2019-02-21T21:52:04.365Z,13.77
2019-02-21T21:54:30.522Z,12.73
2019-02-21T21:56:56.828Z,15.17
2019-02-21T21:59:22.997Z,13.20
2019-02-21T22:01:49.290Z,11.90
2019-02-21T22:04:15.482Z,11.70
2019-02-21T22:06:41.646Z,12.63
2019-02-21T22:09:07.917Z,11.07
2019-02-21T22:11:34.243Z,13.37
2019-02-21T22:14:00.443Z,12.17
2019-02-21T22:16:26.714Z,12.50
2019-02-21T22:18:52.964Z,11.70
2019-02-21T22:21:19.257Z,12.07
2019-02-21T22:23:45.571Z,14.00
2019-02-21T22:26:11.954Z,13.33
2019-02-21T22:28:38.141Z,11.53
2019-02-21T22:31:04.432Z,12.30
2019-02-21T22:33:30.764Z,9.63
2019-02-21T22:35:57.068Z,13.10
2019-02-21T22:38:23.376Z,13.37
2019-02-21T22:40:49.706Z,14.60
2019-02-21T22:43:15.903Z,17.17
2019-02-21T22:45:42.204Z,16.30
2019-02-21T22:48:08.522Z,13.67
2019-02-21T22:50:34.812Z,16.40
2019-02-21T22:53:01.100Z,15.77
2019-02-21T22:55:27.530Z,16.60
2019-02-21T22:57:53.837Z,20.90
2019-02-21T23:00:56.087Z,17.67
2019-02-21T23:03:26.237Z,14.90
2019-02-21T23:06:21.929Z,15.17
2019-02-21T23:08:52.486Z,15.90
2019-02-21T23:11:18.773Z,14.70
2019-02-21T23:13:45.399Z,17.50
2019-02-21T23:16:11.703Z,12.87
2019-02-21T23:18:37.991Z,14.83
2019-02-21T23:21:04.320Z,14.20
2019-02-21T23:23:31.097Z,15.80
2019-02-21T23:25:57.377Z,16.43
2019-02-21T23:28:23.698Z,11.67
2019-02-21T23:30:50.328Z,16.03
2019-02-21T23:33:16.606Z,15.13
2019-02-21T23:35:42.804Z,16.03
2019-02-21T23:38:08.969Z,13.77
2019-02-21T23:40:37.091Z,19.60
2019-02-21T23:43:03.460Z,13.63
2019-02-21T23:45:29.712Z,12.67
2019-02-21T23:47:55.869Z,12.33
2019-02-21T23:50:22.061Z,16.30
2019-02-21T23:52:48.227Z,12.37
2019-02-21T23:55:14.377Z,15.70
2019-02-21T23:57:40.589Z,13.37
